sensor_id;sensor_type;location;lat;lon;timestamp;temperature;humidity
18593;DHT22;9426;54.118;17.948;2023-04-01T00:01:58;8.10;99.90
18593;DHT22;9426;54.118;17.948;2023-04-01T00:07:43;8.10;99.90
18593;DHT22;9426;54.118;17.948;2023-04-01T00:13:06;8.00;99.90
18593;DHT22;9426;54.118;17.948;2023-04-01T00:18:30;7.90;99.90
18593;DHT22;9426;54.118;17.948;2023-04-01T00:23:55;8.00;99.90
18593;DHT22;9426;54.118;17.948;2023-04-01T00:29:18;8.00;99.90
18593;DHT22;9426;54.118;17.948;2023-04-01T00:34:42;7.90;99.90
18593;DHT22;9426;54.118;17.948;2023-04-01T00:40:22;7.80;99.90
18593;DHT22;9426;54.118;17.948;2023-04-01T00:45:47;7.80;99.90
18593;DHT22;9426;54.118;17.948;2023-04-01T00:51:14;7.70;99.90
18593;DHT22;9426;54.118;17.948;2023-04-01T00:56:43;7.70;99.90
18593;DHT22;9426;54.118;17.948;2023-04-01T01:02:12;7.60;99.90
18593;DHT22;9426;54.118;17.948;2023-04-01T01:07:39;7.60;99.90
18593;DHT22;9426;54.118;17.948;2023-04-01T01:13:11;7.50;99.90
18593;DHT22;9426;54.118;17.948;2023-04-01T01:18:40;7.50;99.90
18593;DHT22;9426;54.118;17.948;2023-04-01T01:24:27;7.50;99.90
18593;DHT22;9426;54.118;17.948;2023-04-01T01:30:08;7.40;99.90
18593;DHT22;9426;54.118;17.948;2023-04-01T01:35:37;7.40;99.90
18593;DHT22;9426;54.118;17.948;2023-04-01T01:41:10;7.40;99.90
18593;DHT22;9426;54.118;17.948;2023-04-01T01:46:34;7.30;99.90
18593;DHT22;9426;54.118;17.948;2023-04-01T01:52:00;7.30;99.90
18593;DHT22;9426;54.118;17.948;2023-04-01T01:57:27;7.20;99.90
18593;DHT22;9426;54.118;17.948;2023-04-01T02:02:54;7.10;99.90
18593;DHT22;9426;54.118;17.948;2023-04-01T02:08:22;7.00;99.90
18593;DHT22;9426;54.118;17.948;2023-04-01T02:13:51;6.90;99.90
18593;DHT22;9426;54.118;17.948;2023-04-01T02:19:17;6.70;99.90
18593;DHT22;9426;54.118;17.948;2023-04-01T02:24:48;6.50;99.90
18593;DHT22;9426;54.118;17.948;2023-04-01T02:30:13;6.40;99.90
18593;DHT22;9426;54.118;17.948;2023-04-01T02:35:37;6.40;99.90
18593;DHT22;9426;54.118;17.948;2023-04-01T02:41:03;6.20;99.90
18593;DHT22;9426;54.118;17.948;2023-04-01T02:46:27;6.10;99.90
18593;DHT22;9426;54.118;17.948;2023-04-01T02:51:51;6.00;99.90
18593;DHT22;9426;54.118;17.948;2023-04-01T02:57:16;6.00;99.90
18593;DHT22;9426;54.118;17.948;2023-04-01T03:02:39;5.90;99.90
18593;DHT22;9426;54.118;17.948;2023-04-01T03:08:03;5.90;99.90
18593;DHT22;9426;54.118;17.948;2023-04-01T03:13:28;5.80;99.90
18593;DHT22;9426;54.118;17.948;2023-04-01T03:18:53;5.90;99.90
18593;DHT22;9426;54.118;17.948;2023-04-01T03:24:19;5.60;99.90
18593;DHT22;9426;54.118;17.948;2023-04-01T03:29:44;5.50;99.90
18593;DHT22;9426;54.118;17.948;2023-04-01T03:35:08;5.40;99.90
18593;DHT22;9426;54.118;17.948;2023-04-01T03:40:32;5.30;99.90
18593;DHT22;9426;54.118;17.948;2023-04-01T03:46:01;5.20;99.90
18593;DHT22;9426;54.118;17.948;2023-04-01T03:51:25;5.10;99.90
18593;DHT22;9426;54.118;17.948;2023-04-01T03:56:49;5.10;99.90
18593;DHT22;9426;54.118;17.948;2023-04-01T04:02:16;4.90;99.90
18593;DHT22;9426;54.118;17.948;2023-04-01T04:07:40;4.70;99.90
18593;DHT22;9426;54.118;17.948;2023-04-01T04:13:03;4.60;99.90
18593;DHT22;9426;54.118;17.948;2023-04-01T04:18:33;4.60;99.90
18593;DHT22;9426;54.118;17.948;2023-04-01T04:23:58;4.50;99.90
18593;DHT22;9426;54.118;17.948;2023-04-01T04:29:27;4.40;99.90
18593;DHT22;9426;54.118;17.948;2023-04-01T04:34:52;4.40;99.90
18593;DHT22;9426;54.118;17.948;2023-04-01T04:40:16;4.30;99.90
18593;DHT22;9426;54.118;17.948;2023-04-01T04:45:39;4.30;99.90
18593;DHT22;9426;54.118;17.948;2023-04-01T04:51:05;4.30;99.90
18593;DHT22;9426;54.118;17.948;2023-04-01T04:56:29;4.20;99.90
18593;DHT22;9426;54.118;17.948;2023-04-01T05:02:01;4.30;99.90
18593;DHT22;9426;54.118;17.948;2023-04-01T05:07:26;4.20;99.90
18593;DHT22;9426;54.118;17.948;2023-04-01T05:12:50;4.20;99.90
18593;DHT22;9426;54.118;17.948;2023-04-01T05:18:16;4.20;99.90
18593;DHT22;9426;54.118;17.948;2023-04-01T05:23:41;4.20;99.90
18593;DHT22;9426;54.118;17.948;2023-04-01T05:29:05;4.30;99.90
18593;DHT22;9426;54.118;17.948;2023-04-01T05:34:30;4.30;99.90
18593;DHT22;9426;54.118;17.948;2023-04-01T05:39:55;4.30;99.90
18593;DHT22;9426;54.118;17.948;2023-04-01T05:45:21;4.40;99.90
18593;DHT22;9426;54.118;17.948;2023-04-01T05:51:12;4.50;99.90
18593;DHT22;9426;54.118;17.948;2023-04-01T05:56:37;4.40;99.90
18593;DHT22;9426;54.118;17.948;2023-04-01T06:02:02;4.50;99.90
18593;DHT22;9426;54.118;17.948;2023-04-01T06:07:27;4.50;99.90
18593;DHT22;9426;54.118;17.948;2023-04-01T06:13:03;4.50;99.90
18593;DHT22;9426;54.118;17.948;2023-04-01T06:24:50;4.70;99.90
18593;DHT22;9426;54.118;17.948;2023-04-01T06:30:32;4.80;99.90
18593;DHT22;9426;54.118;17.948;2023-04-01T06:36:15;4.90;99.90
18593;DHT22;9426;54.118;17.948;2023-04-01T06:42:14;5.00;99.90
18593;DHT22;9426;54.118;17.948;2023-04-01T06:47:52;4.90;99.90
18593;DHT22;9426;54.118;17.948;2023-04-01T06:53:33;4.90;99.90
18593;DHT22;9426;54.118;17.948;2023-04-01T06:59:37;4.90;99.90
18593;DHT22;9426;54.118;17.948;2023-04-01T07:05:03;5.00;99.90
18593;DHT22;9426;54.118;17.948;2023-04-01T07:10:34;5.20;99.90
18593;DHT22;9426;54.118;17.948;2023-04-01T07:16:33;5.20;99.90
18593;DHT22;9426;54.118;17.948;2023-04-01T07:22:04;5.20;99.90
18593;DHT22;9426;54.118;17.948;2023-04-01T07:27:48;5.20;99.90
18593;DHT22;9426;54.118;17.948;2023-04-01T07:33:19;5.10;99.90
18593;DHT22;9426;54.118;17.948;2023-04-01T07:38:55;5.00;99.90
18593;DHT22;9426;54.118;17.948;2023-04-01T07:44:57;5.00;99.90
18593;DHT22;9426;54.118;17.948;2023-04-01T07:50:27;5.10;99.90
18593;DHT22;9426;54.118;17.948;2023-04-01T07:55:57;5.20;99.90
18593;DHT22;9426;54.118;17.948;2023-04-01T08:01:32;5.10;99.90
18593;DHT22;9426;54.118;17.948;2023-04-01T08:07:02;5.10;99.90
18593;DHT22;9426;54.118;17.948;2023-04-01T08:12:42;5.10;99.90
18593;DHT22;9426;54.118;17.948;2023-04-01T08:18:49;5.20;99.90
18593;DHT22;9426;54.118;17.948;2023-04-01T08:24:22;5.30;99.90
18593;DHT22;9426;54.118;17.948;2023-04-01T08:29:57;5.40;99.90
18593;DHT22;9426;54.118;17.948;2023-04-01T08:35:28;5.40;99.90
18593;DHT22;9426;54.118;17.948;2023-04-01T08:41:19;5.30;99.90
18593;DHT22;9426;54.118;17.948;2023-04-01T08:47:24;5.30;99.90
18593;DHT22;9426;54.118;17.948;2023-04-01T08:52:57;5.30;99.90
18593;DHT22;9426;54.118;17.948;2023-04-01T08:58:47;5.30;99.90
18593;DHT22;9426;54.118;17.948;2023-04-01T09:04:42;5.30;99.90
18593;DHT22;9426;54.118;17.948;2023-04-01T09:10:24;5.20;99.90
18593;DHT22;9426;54.118;17.948;2023-04-01T09:16:22;5.20;99.90
18593;DHT22;9426;54.118;17.948;2023-04-01T09:22:13;5.10;99.90
18593;DHT22;9426;54.118;17.948;2023-04-01T09:27:45;5.10;99.90
18593;DHT22;9426;54.118;17.948;2023-04-01T09:33:42;5.00;99.90
18593;DHT22;9426;54.118;17.948;2023-04-01T09:39:34;5.00;99.90
18593;DHT22;9426;54.118;17.948;2023-04-01T09:45:01;4.80;99.90
18593;DHT22;9426;54.118;17.948;2023-04-01T09:50:35;4.60;99.90
18593;DHT22;9426;54.118;17.948;2023-04-01T10:02:59;4.40;99.90
18593;DHT22;9426;54.118;17.948;2023-04-01T10:08:49;4.40;99.90
18593;DHT22;9426;54.118;17.948;2023-04-01T10:14:42;4.50;99.90
18593;DHT22;9426;54.118;17.948;2023-04-01T10:26:32;4.50;99.90
18593;DHT22;9426;54.118;17.948;2023-04-01T10:38:53;5.00;99.90
18593;DHT22;9426;54.118;17.948;2023-04-01T10:44:50;4.90;99.90
18593;DHT22;9426;54.118;17.948;2023-04-01T10:51:00;4.70;99.90
18593;DHT22;9426;54.118;17.948;2023-04-01T10:56:39;4.80;99.90
18593;DHT22;9426;54.118;17.948;2023-04-01T11:09:26;5.10;99.90
18593;DHT22;9426;54.118;17.948;2023-04-01T11:15:15;5.30;99.90
18593;DHT22;9426;54.118;17.948;2023-04-01T11:27:03;5.20;99.90
18593;DHT22;9426;54.118;17.948;2023-04-01T11:32:43;5.00;99.90
18593;DHT22;9426;54.118;17.948;2023-04-01T11:38:20;5.00;99.90
18593;DHT22;9426;54.118;17.948;2023-04-01T11:44:01;5.00;99.90
18593;DHT22;9426;54.118;17.948;2023-04-01T11:49:53;5.20;99.90
18593;DHT22;9426;54.118;17.948;2023-04-01T11:55:44;5.40;99.90
18593;DHT22;9426;54.118;17.948;2023-04-01T12:01:27;5.50;99.90
18593;DHT22;9426;54.118;17.948;2023-04-01T12:07:03;5.50;99.90
18593;DHT22;9426;54.118;17.948;2023-04-01T12:12:35;5.30;99.90
18593;DHT22;9426;54.118;17.948;2023-04-01T12:18:14;5.30;99.90
18593;DHT22;9426;54.118;17.948;2023-04-01T12:29:49;5.00;99.90
18593;DHT22;9426;54.118;17.948;2023-04-01T12:35:21;4.90;99.90
18593;DHT22;9426;54.118;17.948;2023-04-01T12:40:55;5.20;99.90
18593;DHT22;9426;54.118;17.948;2023-04-01T12:46:26;5.60;99.90
18593;DHT22;9426;54.118;17.948;2023-04-01T12:52:04;5.50;99.90
18593;DHT22;9426;54.118;17.948;2023-04-01T12:57:59;5.00;99.90
18593;DHT22;9426;54.118;17.948;2023-04-01T13:03:53;4.80;99.90
18593;DHT22;9426;54.118;17.948;2023-04-01T13:09:33;4.60;99.90
18593;DHT22;9426;54.118;17.948;2023-04-01T13:15:23;4.60;99.90
18593;DHT22;9426;54.118;17.948;2023-04-01T13:20:54;4.60;99.90
18593;DHT22;9426;54.118;17.948;2023-04-01T13:26:27;4.50;99.90
18593;DHT22;9426;54.118;17.948;2023-04-01T13:32:00;4.60;99.90
18593;DHT22;9426;54.118;17.948;2023-04-01T13:37:35;4.60;99.90
18593;DHT22;9426;54.118;17.948;2023-04-01T13:43:08;4.40;99.90
18593;DHT22;9426;54.118;17.948;2023-04-01T13:54:32;4.30;99.90
18593;DHT22;9426;54.118;17.948;2023-04-01T14:00:23;4.20;99.90
18593;DHT22;9426;54.118;17.948;2023-04-01T14:11:38;4.30;99.90
18593;DHT22;9426;54.118;17.948;2023-04-01T14:17:17;4.30;99.90
18593;DHT22;9426;54.118;17.948;2023-04-01T14:22:54;4.20;99.90
18593;DHT22;9426;54.118;17.948;2023-04-01T14:28:27;4.00;99.90
18593;DHT22;9426;54.118;17.948;2023-04-01T14:34:03;4.00;99.90
18593;DHT22;9426;54.118;17.948;2023-04-01T14:39:47;4.10;99.90
18593;DHT22;9426;54.118;17.948;2023-04-01T14:45:29;4.10;99.90
18593;DHT22;9426;54.118;17.948;2023-04-01T14:51:09;4.10;99.90
18593;DHT22;9426;54.118;17.948;2023-04-01T14:56:39;4.00;99.90
18593;DHT22;9426;54.118;17.948;2023-04-01T15:02:16;4.00;99.90
18593;DHT22;9426;54.118;17.948;2023-04-01T15:08:02;4.00;99.90
18593;DHT22;9426;54.118;17.948;2023-04-01T15:13:50;3.90;99.90
18593;DHT22;9426;54.118;17.948;2023-04-01T15:19:23;3.80;99.90
18593;DHT22;9426;54.118;17.948;2023-04-01T15:25:02;3.70;99.90
18593;DHT22;9426;54.118;17.948;2023-04-01T15:30:35;3.60;99.90
18593;DHT22;9426;54.118;17.948;2023-04-01T15:36:09;3.50;99.90
18593;DHT22;9426;54.118;17.948;2023-04-01T15:41:46;3.50;99.90
18593;DHT22;9426;54.118;17.948;2023-04-01T15:53:18;3.20;99.90
18593;DHT22;9426;54.118;17.948;2023-04-01T15:58:54;3.10;99.90
18593;DHT22;9426;54.118;17.948;2023-04-01T16:04:48;3.10;99.90
18593;DHT22;9426;54.118;17.948;2023-04-01T16:10:24;3.00;99.90
18593;DHT22;9426;54.118;17.948;2023-04-01T16:16:02;3.00;99.90
18593;DHT22;9426;54.118;17.948;2023-04-01T16:21:36;3.00;99.90
18593;DHT22;9426;54.118;17.948;2023-04-01T16:27:04;3.00;99.90
18593;DHT22;9426;54.118;17.948;2023-04-01T16:32:41;2.80;99.90
18593;DHT22;9426;54.118;17.948;2023-04-01T16:38:12;2.80;99.90
18593;DHT22;9426;54.118;17.948;2023-04-01T16:43:40;2.80;99.90
18593;DHT22;9426;54.118;17.948;2023-04-01T16:49:35;2.80;99.90
18593;DHT22;9426;54.118;17.948;2023-04-01T16:55:08;2.70;99.90
18593;DHT22;9426;54.118;17.948;2023-04-01T17:00:40;2.70;99.90
18593;DHT22;9426;54.118;17.948;2023-04-01T17:06:23;2.80;99.90
18593;DHT22;9426;54.118;17.948;2023-04-01T17:11:56;2.70;99.90
18593;DHT22;9426;54.118;17.948;2023-04-01T17:17:38;2.80;99.90
18593;DHT22;9426;54.118;17.948;2023-04-01T17:23:13;2.70;99.90
18593;DHT22;9426;54.118;17.948;2023-04-01T17:28:46;2.70;99.90
18593;DHT22;9426;54.118;17.948;2023-04-01T17:34:18;2.70;99.90
18593;DHT22;9426;54.118;17.948;2023-04-01T17:39:56;2.80;99.90
18593;DHT22;9426;54.118;17.948;2023-04-01T17:45:24;2.70;99.90
18593;DHT22;9426;54.118;17.948;2023-04-01T17:50:59;2.60;99.90
18593;DHT22;9426;54.118;17.948;2023-04-01T17:56:37;2.60;99.90
18593;DHT22;9426;54.118;17.948;2023-04-01T18:02:16;2.60;99.90
18593;DHT22;9426;54.118;17.948;2023-04-01T18:08:06;2.60;99.90
18593;DHT22;9426;54.118;17.948;2023-04-01T18:19:40;2.50;99.90
18593;DHT22;9426;54.118;17.948;2023-04-01T18:25:16;2.50;99.90
18593;DHT22;9426;54.118;17.948;2023-04-01T18:30:42;2.50;99.90
18593;DHT22;9426;54.118;17.948;2023-04-01T18:36:16;2.60;99.90
18593;DHT22;9426;54.118;17.948;2023-04-01T18:41:55;2.60;99.90
18593;DHT22;9426;54.118;17.948;2023-04-01T18:47:27;2.60;99.90
18593;DHT22;9426;54.118;17.948;2023-04-01T18:53:10;2.60;99.90
18593;DHT22;9426;54.118;17.948;2023-04-01T18:58:46;2.60;99.90
18593;DHT22;9426;54.118;17.948;2023-04-01T19:04:19;2.60;99.90
18593;DHT22;9426;54.118;17.948;2023-04-01T19:09:47;2.50;99.90
18593;DHT22;9426;54.118;17.948;2023-04-01T19:15:24;2.50;99.90
18593;DHT22;9426;54.118;17.948;2023-04-01T19:20:54;2.50;99.90
18593;DHT22;9426;54.118;17.948;2023-04-01T19:26:24;2.60;99.90
18593;DHT22;9426;54.118;17.948;2023-04-01T19:31:56;2.60;99.90
18593;DHT22;9426;54.118;17.948;2023-04-01T19:37:28;2.60;99.90
18593;DHT22;9426;54.118;17.948;2023-04-01T19:43:03;2.60;99.90
18593;DHT22;9426;54.118;17.948;2023-04-01T19:48:44;2.60;99.90
18593;DHT22;9426;54.118;17.948;2023-04-01T19:54:23;2.70;99.90
18593;DHT22;9426;54.118;17.948;2023-04-01T19:59:52;2.60;99.90
18593;DHT22;9426;54.118;17.948;2023-04-01T20:11:30;2.70;99.90
18593;DHT22;9426;54.118;17.948;2023-04-01T20:17:11;2.70;99.90
18593;DHT22;9426;54.118;17.948;2023-04-01T20:22:57;2.70;99.90
18593;DHT22;9426;54.118;17.948;2023-04-01T20:28:30;2.70;99.90
18593;DHT22;9426;54.118;17.948;2023-04-01T20:40:18;2.80;99.90
18593;DHT22;9426;54.118;17.948;2023-04-01T20:45:46;2.70;99.90
18593;DHT22;9426;54.118;17.948;2023-04-01T20:51:13;2.80;99.90
18593;DHT22;9426;54.118;17.948;2023-04-01T20:56:50;2.80;99.90
18593;DHT22;9426;54.118;17.948;2023-04-01T21:02:28;2.80;99.90
18593;DHT22;9426;54.118;17.948;2023-04-01T21:07:57;2.80;99.90
18593;DHT22;9426;54.118;17.948;2023-04-01T21:13:36;2.70;99.90
18593;DHT22;9426;54.118;17.948;2023-04-01T21:19:09;2.70;99.90
18593;DHT22;9426;54.118;17.948;2023-04-01T21:24:56;2.80;99.90
18593;DHT22;9426;54.118;17.948;2023-04-01T21:30:47;2.70;99.90
18593;DHT22;9426;54.118;17.948;2023-04-01T21:36:30;2.80;99.90
18593;DHT22;9426;54.118;17.948;2023-04-01T21:42:11;2.70;99.90
18593;DHT22;9426;54.118;17.948;2023-04-01T21:48:33;2.80;99.90
18593;DHT22;9426;54.118;17.948;2023-04-01T21:54:32;2.70;99.90
18593;DHT22;9426;54.118;17.948;2023-04-01T22:00:19;2.70;99.90
18593;DHT22;9426;54.118;17.948;2023-04-01T22:05:48;2.70;99.90
18593;DHT22;9426;54.118;17.948;2023-04-01T22:11:20;2.60;99.90
18593;DHT22;9426;54.118;17.948;2023-04-01T22:16:50;2.70;99.90
18593;DHT22;9426;54.118;17.948;2023-04-01T22:22:21;2.60;99.90
18593;DHT22;9426;54.118;17.948;2023-04-01T22:27:47;2.60;99.90
18593;DHT22;9426;54.118;17.948;2023-04-01T22:33:21;2.60;99.90
18593;DHT22;9426;54.118;17.948;2023-04-01T22:44:45;2.50;99.90
18593;DHT22;9426;54.118;17.948;2023-04-01T22:50:18;2.40;99.90
18593;DHT22;9426;54.118;17.948;2023-04-01T22:55:47;2.50;99.90
18593;DHT22;9426;54.118;17.948;2023-04-01T23:01:16;2.40;99.90
18593;DHT22;9426;54.118;17.948;2023-04-01T23:06:46;2.40;99.90
18593;DHT22;9426;54.118;17.948;2023-04-01T23:12:14;2.40;99.90
18593;DHT22;9426;54.118;17.948;2023-04-01T23:17:56;2.30;99.90
18593;DHT22;9426;54.118;17.948;2023-04-01T23:23:30;2.30;99.90
18593;DHT22;9426;54.118;17.948;2023-04-01T23:28:57;2.30;99.90
18593;DHT22;9426;54.118;17.948;2023-04-01T23:34:27;2.30;99.90
18593;DHT22;9426;54.118;17.948;2023-04-01T23:39:53;2.30;99.90
18593;DHT22;9426;54.118;17.948;2023-04-01T23:45:18;2.30;99.90
18593;DHT22;9426;54.118;17.948;2023-04-01T23:50:43;2.30;99.90
18593;DHT22;9426;54.118;17.948;2023-04-01T23:56:07;2.30;99.90
